sensor_id;sensor_type;location;lat;lon;timestamp;P1;durP1;ratioP1;P2;durP2;ratioP2
18090;SDS011;9172;49.948;9.208;2022-09-04T00:01:42;2.13;;;1.90;;
18090;SDS011;9172;49.948;9.208;2022-09-04T00:04:15;2.43;;;1.73;;
18090;SDS011;9172;49.948;9.208;2022-09-04T00:06:49;3.00;;;2.00;;
18090;SDS011;9172;49.948;9.208;2022-09-04T00:09:21;3.40;;;1.80;;
18090;SDS011;9172;49.948;9.208;2022-09-04T00:11:55;4.23;;;2.03;;
18090;SDS011;9172;49.948;9.208;2022-09-04T00:14:27;3.93;;;2.00;;
18090;SDS011;9172;49.948;9.208;2022-09-04T00:16:57;2.87;;;2.10;;
18090;SDS011;9172;49.948;9.208;2022-09-04T00:19:30;4.67;;;2.03;;
18090;SDS011;9172;49.948;9.208;2022-09-04T00:22:02;2.33;;;1.90;;
18090;SDS011;9172;49.948;9.208;2022-09-04T00:24:35;2.70;;;2.07;;
18090;SDS011;9172;49.948;9.208;2022-09-04T00:27:08;2.97;;;2.00;;
18090;SDS011;9172;49.948;9.208;2022-09-04T00:29:40;2.10;;;1.70;;
18090;SDS011;9172;49.948;9.208;2022-09-04T00:32:15;2.70;;;1.80;;
18090;SDS011;9172;49.948;9.208;2022-09-04T00:34:49;4.40;;;2.10;;
18090;SDS011;9172;49.948;9.208;2022-09-04T00:37:22;2.90;;;2.00;;
18090;SDS011;9172;49.948;9.208;2022-09-04T00:39:56;2.57;;;1.93;;
18090;SDS011;9172;49.948;9.208;2022-09-04T00:42:36;3.43;;;2.10;;
18090;SDS011;9172;49.948;9.208;2022-09-04T00:45:08;6.40;;;2.13;;
18090;SDS011;9172;49.948;9.208;2022-09-04T00:47:46;2.80;;;2.20;;
18090;SDS011;9172;49.948;9.208;2022-09-04T00:50:57;2.27;;;2.07;;
18090;SDS011;9172;49.948;9.208;2022-09-04T00:53:33;3.20;;;2.43;;
18090;SDS011;9172;49.948;9.208;2022-09-04T00:56:10;2.40;;;2.10;;
18090;SDS011;9172;49.948;9.208;2022-09-04T00:58:51;4.60;;;2.13;;
18090;SDS011;9172;49.948;9.208;2022-09-04T01:01:26;3.70;;;2.30;;
18090;SDS011;9172;49.948;9.208;2022-09-04T01:04:08;2.30;;;2.10;;
18090;SDS011;9172;49.948;9.208;2022-09-04T01:06:45;4.23;;;2.00;;
18090;SDS011;9172;49.948;9.208;2022-09-04T01:09:22;3.00;;;2.00;;
18090;SDS011;9172;49.948;9.208;2022-09-04T01:11:56;2.30;;;2.00;;
18090;SDS011;9172;49.948;9.208;2022-09-04T01:14:30;2.40;;;1.90;;
18090;SDS011;9172;49.948;9.208;2022-09-04T01:17:05;4.93;;;2.20;;
18090;SDS011;9172;49.948;9.208;2022-09-04T01:19:41;2.37;;;1.90;;
18090;SDS011;9172;49.948;9.208;2022-09-04T01:22:19;2.43;;;1.93;;
18090;SDS011;9172;49.948;9.208;2022-09-04T01:24:59;2.10;;;1.90;;
18090;SDS011;9172;49.948;9.208;2022-09-04T01:27:39;2.63;;;2.23;;
18090;SDS011;9172;49.948;9.208;2022-09-04T01:30:09;3.57;;;2.17;;
18090;SDS011;9172;49.948;9.208;2022-09-04T01:32:44;4.27;;;2.10;;
18090;SDS011;9172;49.948;9.208;2022-09-04T01:35:20;2.93;;;2.10;;
18090;SDS011;9172;49.948;9.208;2022-09-04T01:37:56;2.40;;;1.90;;
18090;SDS011;9172;49.948;9.208;2022-09-04T01:40:31;2.50;;;2.00;;
18090;SDS011;9172;49.948;9.208;2022-09-04T01:43:04;2.60;;;2.07;;
18090;SDS011;9172;49.948;9.208;2022-09-04T01:45:41;2.60;;;2.37;;
18090;SDS011;9172;49.948;9.208;2022-09-04T01:48:16;4.23;;;2.83;;
18090;SDS011;9172;49.948;9.208;2022-09-04T01:50:47;4.00;;;2.80;;
18090;SDS011;9172;49.948;9.208;2022-09-04T01:53:19;4.73;;;2.70;;
18090;SDS011;9172;49.948;9.208;2022-09-04T01:55:54;3.80;;;2.73;;
18090;SDS011;9172;49.948;9.208;2022-09-04T01:58:27;4.40;;;2.77;;
18090;SDS011;9172;49.948;9.208;2022-09-04T02:00:57;3.00;;;2.27;;
18090;SDS011;9172;49.948;9.208;2022-09-04T02:03:31;3.20;;;2.67;;
18090;SDS011;9172;49.948;9.208;2022-09-04T02:06:05;3.57;;;2.17;;
18090;SDS011;9172;49.948;9.208;2022-09-04T02:08:40;2.93;;;2.23;;
18090;SDS011;9172;49.948;9.208;2022-09-04T02:11:17;4.07;;;2.33;;
18090;SDS011;9172;49.948;9.208;2022-09-04T02:13:52;2.47;;;1.90;;
18090;SDS011;9172;49.948;9.208;2022-09-04T02:16:28;2.83;;;2.17;;
18090;SDS011;9172;49.948;9.208;2022-09-04T02:19:01;2.97;;;2.10;;
18090;SDS011;9172;49.948;9.208;2022-09-04T02:21:34;2.83;;;2.33;;
18090;SDS011;9172;49.948;9.208;2022-09-04T02:24:06;4.87;;;2.17;;
18090;SDS011;9172;49.948;9.208;2022-09-04T02:26:38;3.93;;;2.40;;
18090;SDS011;9172;49.948;9.208;2022-09-04T02:29:10;2.87;;;2.43;;
18090;SDS011;9172;49.948;9.208;2022-09-04T02:31:42;6.53;;;2.63;;
18090;SDS011;9172;49.948;9.208;2022-09-04T02:34:14;5.07;;;2.30;;
18090;SDS011;9172;49.948;9.208;2022-09-04T02:36:45;6.57;;;2.70;;
18090;SDS011;9172;49.948;9.208;2022-09-04T02:39:20;6.57;;;2.57;;
18090;SDS011;9172;49.948;9.208;2022-09-04T02:41:54;3.00;;;2.40;;
18090;SDS011;9172;49.948;9.208;2022-09-04T02:44:32;3.07;;;2.23;;
18090;SDS011;9172;49.948;9.208;2022-09-04T02:47:05;3.60;;;2.37;;
18090;SDS011;9172;49.948;9.208;2022-09-04T02:49:41;4.30;;;2.47;;
18090;SDS011;9172;49.948;9.208;2022-09-04T02:52:18;3.17;;;2.10;;
18090;SDS011;9172;49.948;9.208;2022-09-04T02:54:56;2.77;;;2.10;;
18090;SDS011;9172;49.948;9.208;2022-09-04T02:57:31;6.13;;;2.40;;
18090;SDS011;9172;49.948;9.208;2022-09-04T03:00:05;3.00;;;2.50;;
18090;SDS011;9172;49.948;9.208;2022-09-04T03:02:40;4.63;;;2.07;;
18090;SDS011;9172;49.948;9.208;2022-09-04T03:05:13;3.40;;;2.23;;
18090;SDS011;9172;49.948;9.208;2022-09-04T03:07:45;2.57;;;2.03;;
18090;SDS011;9172;49.948;9.208;2022-09-04T03:10:18;2.90;;;2.20;;
18090;SDS011;9172;49.948;9.208;2022-09-04T03:12:50;3.50;;;2.50;;
18090;SDS011;9172;49.948;9.208;2022-09-04T03:15:22;5.20;;;2.17;;
18090;SDS011;9172;49.948;9.208;2022-09-04T03:17:54;3.07;;;2.37;;
18090;SDS011;9172;49.948;9.208;2022-09-04T03:20:27;2.47;;;2.27;;
18090;SDS011;9172;49.948;9.208;2022-09-04T03:22:59;4.90;;;2.60;;
18090;SDS011;9172;49.948;9.208;2022-09-04T03:25:40;2.40;;;2.03;;
18090;SDS011;9172;49.948;9.208;2022-09-04T03:28:22;2.40;;;2.10;;
18090;SDS011;9172;49.948;9.208;2022-09-04T03:30:56;2.93;;;2.33;;
18090;SDS011;9172;49.948;9.208;2022-09-04T03:33:29;2.93;;;2.30;;
18090;SDS011;9172;49.948;9.208;2022-09-04T03:36:02;3.10;;;2.30;;
18090;SDS011;9172;49.948;9.208;2022-09-04T03:38:35;2.20;;;1.80;;
18090;SDS011;9172;49.948;9.208;2022-09-04T03:41:07;4.17;;;2.57;;
18090;SDS011;9172;49.948;9.208;2022-09-04T03:43:41;4.07;;;2.40;;
18090;SDS011;9172;49.948;9.208;2022-09-04T03:46:25;2.70;;;2.20;;
18090;SDS011;9172;49.948;9.208;2022-09-04T03:49:15;2.57;;;2.30;;
18090;SDS011;9172;49.948;9.208;2022-09-04T03:51:50;2.50;;;1.90;;
18090;SDS011;9172;49.948;9.208;2022-09-04T03:54:27;3.83;;;2.40;;
18090;SDS011;9172;49.948;9.208;2022-09-04T03:57:05;3.00;;;2.30;;
18090;SDS011;9172;49.948;9.208;2022-09-04T03:59:45;3.13;;;2.30;;
18090;SDS011;9172;49.948;9.208;2022-09-04T04:02:25;2.50;;;1.97;;
18090;SDS011;9172;49.948;9.208;2022-09-04T04:05:17;4.47;;;2.17;;
18090;SDS011;9172;49.948;9.208;2022-09-04T04:07:52;3.10;;;2.07;;
18090;SDS011;9172;49.948;9.208;2022-09-04T04:10:34;2.87;;;1.90;;
18090;SDS011;9172;49.948;9.208;2022-09-04T04:13:15;3.30;;;2.13;;
18090;SDS011;9172;49.948;9.208;2022-09-04T04:16:10;2.43;;;1.87;;
18090;SDS011;9172;49.948;9.208;2022-09-04T04:18:48;3.60;;;2.33;;
18090;SDS011;9172;49.948;9.208;2022-09-04T04:21:29;2.40;;;2.10;;
18090;SDS011;9172;49.948;9.208;2022-09-04T04:24:10;3.20;;;1.73;;
18090;SDS011;9172;49.948;9.208;2022-09-04T04:26:55;2.50;;;1.70;;
18090;SDS011;9172;49.948;9.208;2022-09-04T04:29:36;2.57;;;2.17;;
18090;SDS011;9172;49.948;9.208;2022-09-04T04:32:14;4.20;;;2.33;;
18090;SDS011;9172;49.948;9.208;2022-09-04T04:34:53;3.47;;;2.20;;
18090;SDS011;9172;49.948;9.208;2022-09-04T04:37:31;2.23;;;2.00;;
18090;SDS011;9172;49.948;9.208;2022-09-04T04:40:02;2.17;;;1.90;;
18090;SDS011;9172;49.948;9.208;2022-09-04T04:42:37;3.03;;;2.20;;
18090;SDS011;9172;49.948;9.208;2022-09-04T04:45:14;3.60;;;2.10;;
18090;SDS011;9172;49.948;9.208;2022-09-04T04:48:31;2.00;;;1.80;;
18090;SDS011;9172;49.948;9.208;2022-09-04T04:51:16;3.33;;;1.87;;
18090;SDS011;9172;49.948;9.208;2022-09-04T04:53:52;2.17;;;1.77;;
18090;SDS011;9172;49.948;9.208;2022-09-04T04:56:25;2.80;;;2.00;;
18090;SDS011;9172;49.948;9.208;2022-09-04T04:58:59;1.70;;;1.60;;
18090;SDS011;9172;49.948;9.208;2022-09-04T05:01:38;2.40;;;2.03;;
18090;SDS011;9172;49.948;9.208;2022-09-04T05:04:12;2.50;;;2.07;;
18090;SDS011;9172;49.948;9.208;2022-09-04T05:06:46;2.27;;;2.00;;
18090;SDS011;9172;49.948;9.208;2022-09-04T05:09:17;2.83;;;1.97;;
18090;SDS011;9172;49.948;9.208;2022-09-04T05:11:51;4.20;;;2.17;;
18090;SDS011;9172;49.948;9.208;2022-09-04T05:14:27;2.67;;;2.00;;
18090;SDS011;9172;49.948;9.208;2022-09-04T05:17:04;2.83;;;1.80;;
18090;SDS011;9172;49.948;9.208;2022-09-04T05:19:38;2.40;;;2.00;;
18090;SDS011;9172;49.948;9.208;2022-09-04T05:22:12;3.70;;;2.00;;
18090;SDS011;9172;49.948;9.208;2022-09-04T05:24:45;2.80;;;1.77;;
18090;SDS011;9172;49.948;9.208;2022-09-04T05:27:25;2.43;;;2.00;;
18090;SDS011;9172;49.948;9.208;2022-09-04T05:29:59;2.67;;;2.17;;
18090;SDS011;9172;49.948;9.208;2022-09-04T05:32:30;2.83;;;1.80;;
18090;SDS011;9172;49.948;9.208;2022-09-04T05:35:03;2.13;;;1.70;;
18090;SDS011;9172;49.948;9.208;2022-09-04T05:37:35;2.27;;;1.73;;
18090;SDS011;9172;49.948;9.208;2022-09-04T05:40:11;3.27;;;1.93;;
18090;SDS011;9172;49.948;9.208;2022-09-04T05:42:41;2.27;;;1.77;;
18090;SDS011;9172;49.948;9.208;2022-09-04T05:45:20;4.93;;;2.03;;
18090;SDS011;9172;49.948;9.208;2022-09-04T05:47:55;4.60;;;2.00;;
18090;SDS011;9172;49.948;9.208;2022-09-04T05:50:31;2.37;;;1.87;;
18090;SDS011;9172;49.948;9.208;2022-09-04T05:53:14;3.37;;;1.90;;
18090;SDS011;9172;49.948;9.208;2022-09-04T05:56:01;2.80;;;2.07;;
18090;SDS011;9172;49.948;9.208;2022-09-04T05:58:39;2.37;;;2.10;;
18090;SDS011;9172;49.948;9.208;2022-09-04T06:01:34;3.93;;;2.20;;
18090;SDS011;9172;49.948;9.208;2022-09-04T06:04:22;4.20;;;1.93;;
18090;SDS011;9172;49.948;9.208;2022-09-04T06:07:01;2.77;;;2.07;;
18090;SDS011;9172;49.948;9.208;2022-09-04T06:09:39;4.80;;;2.23;;
18090;SDS011;9172;49.948;9.208;2022-09-04T06:12:27;2.90;;;2.10;;
18090;SDS011;9172;49.948;9.208;2022-09-04T06:15:06;2.73;;;2.17;;
18090;SDS011;9172;49.948;9.208;2022-09-04T06:17:46;2.47;;;1.97;;
18090;SDS011;9172;49.948;9.208;2022-09-04T06:20:32;3.00;;;2.17;;
18090;SDS011;9172;49.948;9.208;2022-09-04T06:23:14;2.50;;;2.30;;
18090;SDS011;9172;49.948;9.208;2022-09-04T06:26:06;2.90;;;1.80;;
18090;SDS011;9172;49.948;9.208;2022-09-04T06:28:47;4.40;;;1.97;;
18090;SDS011;9172;49.948;9.208;2022-09-04T06:31:32;2.77;;;2.10;;
18090;SDS011;9172;49.948;9.208;2022-09-04T06:34:18;3.43;;;2.27;;
18090;SDS011;9172;49.948;9.208;2022-09-04T06:36:56;4.27;;;2.47;;
18090;SDS011;9172;49.948;9.208;2022-09-04T06:39:41;2.60;;;2.30;;
18090;SDS011;9172;49.948;9.208;2022-09-04T06:42:17;4.50;;;2.67;;
18090;SDS011;9172;49.948;9.208;2022-09-04T06:44:53;2.47;;;2.17;;
18090;SDS011;9172;49.948;9.208;2022-09-04T06:47:29;3.17;;;2.13;;
18090;SDS011;9172;49.948;9.208;2022-09-04T06:50:06;3.50;;;2.83;;
18090;SDS011;9172;49.948;9.208;2022-09-04T06:52:51;6.30;;;3.13;;
18090;SDS011;9172;49.948;9.208;2022-09-04T06:55:27;3.13;;;2.47;;
18090;SDS011;9172;49.948;9.208;2022-09-04T06:58:02;2.80;;;2.50;;
18090;SDS011;9172;49.948;9.208;2022-09-04T07:00:36;3.50;;;2.70;;
18090;SDS011;9172;49.948;9.208;2022-09-04T07:03:29;3.90;;;2.60;;
18090;SDS011;9172;49.948;9.208;2022-09-04T07:06:09;4.17;;;2.73;;
18090;SDS011;9172;49.948;9.208;2022-09-04T07:08:46;3.17;;;2.50;;
18090;SDS011;9172;49.948;9.208;2022-09-04T07:11:26;3.83;;;2.50;;
18090;SDS011;9172;49.948;9.208;2022-09-04T07:14:07;3.00;;;2.53;;
18090;SDS011;9172;49.948;9.208;2022-09-04T07:16:43;2.87;;;2.37;;
18090;SDS011;9172;49.948;9.208;2022-09-04T07:19:23;5.63;;;2.20;;
18090;SDS011;9172;49.948;9.208;2022-09-04T07:22:05;2.43;;;2.20;;
18090;SDS011;9172;49.948;9.208;2022-09-04T07:24:48;5.47;;;2.40;;
18090;SDS011;9172;49.948;9.208;2022-09-04T07:27:26;2.87;;;1.97;;
18090;SDS011;9172;49.948;9.208;2022-09-04T07:29:59;6.97;;;2.50;;
18090;SDS011;9172;49.948;9.208;2022-09-04T07:32:33;2.03;;;1.70;;
18090;SDS011;9172;49.948;9.208;2022-09-04T07:35:06;5.27;;;2.10;;
18090;SDS011;9172;49.948;9.208;2022-09-04T07:37:39;2.30;;;1.70;;
18090;SDS011;9172;49.948;9.208;2022-09-04T07:40:10;2.63;;;1.97;;
18090;SDS011;9172;49.948;9.208;2022-09-04T07:42:44;7.37;;;2.20;;
18090;SDS011;9172;49.948;9.208;2022-09-04T07:45:19;3.97;;;2.87;;
18090;SDS011;9172;49.948;9.208;2022-09-04T07:47:54;3.43;;;2.53;;
18090;SDS011;9172;49.948;9.208;2022-09-04T07:50:28;3.23;;;2.20;;
18090;SDS011;9172;49.948;9.208;2022-09-04T07:53:06;3.43;;;2.37;;
18090;SDS011;9172;49.948;9.208;2022-09-04T07:55:38;2.60;;;2.20;;
18090;SDS011;9172;49.948;9.208;2022-09-04T07:58:19;3.80;;;2.40;;
18090;SDS011;9172;49.948;9.208;2022-09-04T08:01:07;3.03;;;2.47;;
18090;SDS011;9172;49.948;9.208;2022-09-04T08:03:49;3.30;;;2.60;;
18090;SDS011;9172;49.948;9.208;2022-09-04T08:06:25;3.77;;;2.40;;
18090;SDS011;9172;49.948;9.208;2022-09-04T08:08:59;5.77;;;3.00;;
18090;SDS011;9172;49.948;9.208;2022-09-04T08:11:38;5.80;;;2.67;;
18090;SDS011;9172;49.948;9.208;2022-09-04T08:14:19;3.90;;;2.40;;
18090;SDS011;9172;49.948;9.208;2022-09-04T08:16:59;4.30;;;2.30;;
18090;SDS011;9172;49.948;9.208;2022-09-04T08:19:52;3.43;;;2.50;;
18090;SDS011;9172;49.948;9.208;2022-09-04T08:22:27;3.80;;;2.10;;
18090;SDS011;9172;49.948;9.208;2022-09-04T08:25:02;2.20;;;1.83;;
18090;SDS011;9172;49.948;9.208;2022-09-04T08:27:49;2.50;;;1.90;;
18090;SDS011;9172;49.948;9.208;2022-09-04T08:30:23;3.50;;;2.10;;
18090;SDS011;9172;49.948;9.208;2022-09-04T08:36:07;2.53;;;2.10;;
18090;SDS011;9172;49.948;9.208;2022-09-04T08:38:42;3.70;;;2.00;;
18090;SDS011;9172;49.948;9.208;2022-09-04T08:50:52;2.33;;;1.63;;
18090;SDS011;9172;49.948;9.208;2022-09-04T08:53:42;2.10;;;1.50;;
18090;SDS011;9172;49.948;9.208;2022-09-04T08:56:17;2.90;;;1.90;;
18090;SDS011;9172;49.948;9.208;2022-09-04T08:59:12;2.70;;;1.70;;
18090;SDS011;9172;49.948;9.208;2022-09-04T09:01:58;4.50;;;2.10;;
18090;SDS011;9172;49.948;9.208;2022-09-04T09:04:43;4.03;;;1.90;;
18090;SDS011;9172;49.948;9.208;2022-09-04T09:07:32;3.07;;;1.67;;
18090;SDS011;9172;49.948;9.208;2022-09-04T09:10:28;4.57;;;1.90;;
18090;SDS011;9172;49.948;9.208;2022-09-04T09:16:21;2.90;;;2.10;;
18090;SDS011;9172;49.948;9.208;2022-09-04T09:22:07;2.97;;;1.60;;
18090;SDS011;9172;49.948;9.208;2022-09-04T09:24:46;4.60;;;1.63;;
18090;SDS011;9172;49.948;9.208;2022-09-04T09:27:51;1.57;;;1.33;;
18090;SDS011;9172;49.948;9.208;2022-09-04T09:30:27;4.87;;;1.50;;
18090;SDS011;9172;49.948;9.208;2022-09-04T09:33:24;3.27;;;1.30;;
18090;SDS011;9172;49.948;9.208;2022-09-04T09:39:02;2.60;;;1.50;;
18090;SDS011;9172;49.948;9.208;2022-09-04T09:42:10;2.50;;;1.40;;
18090;SDS011;9172;49.948;9.208;2022-09-04T09:48:14;3.10;;;1.73;;
18090;SDS011;9172;49.948;9.208;2022-09-04T09:51:11;5.50;;;1.90;;
18090;SDS011;9172;49.948;9.208;2022-09-04T09:57:00;2.67;;;1.63;;
18090;SDS011;9172;49.948;9.208;2022-09-04T09:59:56;4.67;;;1.80;;
18090;SDS011;9172;49.948;9.208;2022-09-04T10:12:22;2.17;;;1.77;;
18090;SDS011;9172;49.948;9.208;2022-09-04T10:15:14;2.93;;;1.90;;
18090;SDS011;9172;49.948;9.208;2022-09-04T10:24:30;2.47;;;1.67;;
18090;SDS011;9172;49.948;9.208;2022-09-04T10:27:36;3.23;;;1.70;;
18090;SDS011;9172;49.948;9.208;2022-09-04T10:30:11;1.37;;;1.20;;
18090;SDS011;9172;49.948;9.208;2022-09-04T10:32:53;3.20;;;1.63;;
18090;SDS011;9172;49.948;9.208;2022-09-04T10:35:52;1.97;;;1.53;;
18090;SDS011;9172;49.948;9.208;2022-09-04T10:38:40;6.30;;;1.90;;
18090;SDS011;9172;49.948;9.208;2022-09-04T10:41:35;2.50;;;1.33;;
18090;SDS011;9172;49.948;9.208;2022-09-04T10:44:30;2.13;;;1.47;;
18090;SDS011;9172;49.948;9.208;2022-09-04T10:47:08;3.47;;;1.60;;
18090;SDS011;9172;49.948;9.208;2022-09-04T10:52:57;2.73;;;1.40;;
18090;SDS011;9172;49.948;9.208;2022-09-04T10:55:45;2.87;;;1.67;;
18090;SDS011;9172;49.948;9.208;2022-09-04T10:58:31;2.63;;;1.30;;
18090;SDS011;9172;49.948;9.208;2022-09-04T11:01:21;2.80;;;1.40;;
18090;SDS011;9172;49.948;9.208;2022-09-04T11:04:13;1.95;;;1.27;;
18090;SDS011;9172;49.948;9.208;2022-09-04T11:06:59;2.33;;;1.05;;
18090;SDS011;9172;49.948;9.208;2022-09-04T11:09:55;1.73;;;1.10;;
18090;SDS011;9172;49.948;9.208;2022-09-04T11:12:49;4.77;;;1.40;;
18090;SDS011;9172;49.948;9.208;2022-09-04T11:21:27;2.37;;;1.20;;
18090;SDS011;9172;49.948;9.208;2022-09-04T11:24:19;2.87;;;1.45;;
18090;SDS011;9172;49.948;9.208;2022-09-04T11:27:13;2.47;;;1.17;;
18090;SDS011;9172;49.948;9.208;2022-09-04T11:30:09;2.15;;;1.50;;
18090;SDS011;9172;49.948;9.208;2022-09-04T11:32:49;3.37;;;1.67;;
18090;SDS011;9172;49.948;9.208;2022-09-04T11:35:43;3.50;;;1.50;;
18090;SDS011;9172;49.948;9.208;2022-09-04T11:38:24;3.20;;;1.37;;
18090;SDS011;9172;49.948;9.208;2022-09-04T11:41:24;3.20;;;1.70;;
18090;SDS011;9172;49.948;9.208;2022-09-04T11:44:04;1.87;;;1.20;;
18090;SDS011;9172;49.948;9.208;2022-09-04T11:46:49;1.20;;;0.98;;
18090;SDS011;9172;49.948;9.208;2022-09-04T11:49:48;1.60;;;1.13;;
18090;SDS011;9172;49.948;9.208;2022-09-04T11:52:24;1.80;;;1.15;;
18090;SDS011;9172;49.948;9.208;2022-09-04T11:55:10;1.45;;;0.68;;
18090;SDS011;9172;49.948;9.208;2022-09-04T11:58:07;2.85;;;1.00;;
18090;SDS011;9172;49.948;9.208;2022-09-04T12:00:46;2.65;;;1.22;;
18090;SDS011;9172;49.948;9.208;2022-09-04T12:03:24;1.52;;;0.95;;
18090;SDS011;9172;49.948;9.208;2022-09-04T12:06:19;2.15;;;1.35;;
18090;SDS011;9172;49.948;9.208;2022-09-04T12:12:12;1.52;;;1.00;;
18090;SDS011;9172;49.948;9.208;2022-09-04T12:14:54;2.83;;;1.10;;
18090;SDS011;9172;49.948;9.208;2022-09-04T12:17:45;1.90;;;1.40;;
18090;SDS011;9172;49.948;9.208;2022-09-04T12:24:10;2.45;;;1.20;;
18090;SDS011;9172;49.948;9.208;2022-09-04T12:26:47;5.72;;;1.70;;
18090;SDS011;9172;49.948;9.208;2022-09-04T12:29:44;2.85;;;1.75;;
18090;SDS011;9172;49.948;9.208;2022-09-04T12:32:28;2.83;;;1.57;;
18090;SDS011;9172;49.948;9.208;2022-09-04T12:38:21;3.25;;;1.70;;
18090;SDS011;9172;49.948;9.208;2022-09-04T12:41:12;2.20;;;1.47;;
18090;SDS011;9172;49.948;9.208;2022-09-04T12:43:54;2.25;;;1.70;;
18090;SDS011;9172;49.948;9.208;2022-09-04T12:46:32;3.12;;;1.70;;
18090;SDS011;9172;49.948;9.208;2022-09-04T12:49:17;2.85;;;1.57;;
18090;SDS011;9172;49.948;9.208;2022-09-04T12:51:48;1.67;;;1.50;;
18090;SDS011;9172;49.948;9.208;2022-09-04T12:54:25;2.55;;;1.42;;
18090;SDS011;9172;49.948;9.208;2022-09-04T12:57:04;2.62;;;1.40;;
18090;SDS011;9172;49.948;9.208;2022-09-04T12:59:40;2.65;;;1.57;;
18090;SDS011;9172;49.948;9.208;2022-09-04T13:02:15;2.47;;;1.62;;
18090;SDS011;9172;49.948;9.208;2022-09-04T13:04:52;3.83;;;2.30;;
18090;SDS011;9172;49.948;9.208;2022-09-04T13:07:27;3.62;;;1.87;;
18090;SDS011;9172;49.948;9.208;2022-09-04T13:10:02;3.62;;;2.08;;
18090;SDS011;9172;49.948;9.208;2022-09-04T13:12:38;2.92;;;1.57;;
18090;SDS011;9172;49.948;9.208;2022-09-04T13:15:19;3.02;;;1.30;;
18090;SDS011;9172;49.948;9.208;2022-09-04T13:17:56;2.45;;;1.42;;
18090;SDS011;9172;49.948;9.208;2022-09-04T13:20:33;3.90;;;1.62;;
18090;SDS011;9172;49.948;9.208;2022-09-04T13:23:10;1.62;;;1.12;;
18090;SDS011;9172;49.948;9.208;2022-09-04T13:25:47;2.08;;;0.90;;
18090;SDS011;9172;49.948;9.208;2022-09-04T13:28:23;2.22;;;1.30;;
18090;SDS011;9172;49.948;9.208;2022-09-04T13:30:58;2.60;;;1.50;;
18090;SDS011;9172;49.948;9.208;2022-09-04T13:33:32;1.65;;;1.27;;
18090;SDS011;9172;49.948;9.208;2022-09-04T13:36:10;2.10;;;1.00;;
18090;SDS011;9172;49.948;9.208;2022-09-04T13:41:58;2.10;;;1.47;;
18090;SDS011;9172;49.948;9.208;2022-09-04T13:45:01;1.75;;;1.17;;
18090;SDS011;9172;49.948;9.208;2022-09-04T13:47:37;2.08;;;1.42;;
18090;SDS011;9172;49.948;9.208;2022-09-04T13:50:14;1.57;;;1.35;;
18090;SDS011;9172;49.948;9.208;2022-09-04T13:52:47;4.22;;;1.80;;
18090;SDS011;9172;49.948;9.208;2022-09-04T13:55:21;2.50;;;1.50;;
18090;SDS011;9172;49.948;9.208;2022-09-04T13:57:53;1.95;;;1.25;;
18090;SDS011;9172;49.948;9.208;2022-09-04T14:00:26;2.98;;;1.35;;
18090;SDS011;9172;49.948;9.208;2022-09-04T14:02:59;4.47;;;1.80;;
18090;SDS011;9172;49.948;9.208;2022-09-04T14:05:31;3.40;;;1.80;;
18090;SDS011;9172;49.948;9.208;2022-09-04T14:08:03;2.50;;;1.70;;
18090;SDS011;9172;49.948;9.208;2022-09-04T14:10:40;2.40;;;1.60;;
18090;SDS011;9172;49.948;9.208;2022-09-04T14:13:29;3.33;;;1.65;;
18090;SDS011;9172;49.948;9.208;2022-09-04T14:16:03;2.35;;;1.50;;
18090;SDS011;9172;49.948;9.208;2022-09-04T14:18:41;3.72;;;2.30;;
18090;SDS011;9172;49.948;9.208;2022-09-04T14:21:24;5.10;;;1.60;;
18090;SDS011;9172;49.948;9.208;2022-09-04T14:23:59;2.95;;;1.98;;
18090;SDS011;9172;49.948;9.208;2022-09-04T14:26:33;3.45;;;1.90;;
18090;SDS011;9172;49.948;9.208;2022-09-04T14:29:06;3.60;;;2.20;;
18090;SDS011;9172;49.948;9.208;2022-09-04T14:31:43;3.77;;;2.10;;
18090;SDS011;9172;49.948;9.208;2022-09-04T14:34:15;2.60;;;1.75;;
18090;SDS011;9172;49.948;9.208;2022-09-04T14:36:50;3.58;;;2.17;;
18090;SDS011;9172;49.948;9.208;2022-09-04T14:39:24;3.27;;;2.00;;
18090;SDS011;9172;49.948;9.208;2022-09-04T14:42:18;4.95;;;1.87;;
18090;SDS011;9172;49.948;9.208;2022-09-04T14:44:58;3.83;;;2.20;;
18090;SDS011;9172;49.948;9.208;2022-09-04T14:47:39;2.95;;;1.98;;
18090;SDS011;9172;49.948;9.208;2022-09-04T14:50:13;2.85;;;1.85;;
18090;SDS011;9172;49.948;9.208;2022-09-04T14:52:46;2.77;;;1.87;;
18090;SDS011;9172;49.948;9.208;2022-09-04T14:55:17;3.40;;;2.00;;
18090;SDS011;9172;49.948;9.208;2022-09-04T14:57:51;2.98;;;1.95;;
18090;SDS011;9172;49.948;9.208;2022-09-04T15:00:24;3.25;;;2.05;;
18090;SDS011;9172;49.948;9.208;2022-09-04T15:02:58;3.45;;;2.25;;
18090;SDS011;9172;49.948;9.208;2022-09-04T15:05:29;3.67;;;2.10;;
18090;SDS011;9172;49.948;9.208;2022-09-04T15:08:01;3.10;;;2.20;;
18090;SDS011;9172;49.948;9.208;2022-09-04T15:10:33;2.70;;;2.00;;
18090;SDS011;9172;49.948;9.208;2022-09-04T15:13:31;3.12;;;1.80;;
18090;SDS011;9172;49.948;9.208;2022-09-04T15:16:06;4.05;;;2.10;;
18090;SDS011;9172;49.948;9.208;2022-09-04T15:18:43;4.85;;;1.98;;
18090;SDS011;9172;49.948;9.208;2022-09-04T15:21:16;2.30;;;1.62;;
18090;SDS011;9172;49.948;9.208;2022-09-04T15:23:49;4.00;;;2.00;;
18090;SDS011;9172;49.948;9.208;2022-09-04T15:26:22;3.45;;;2.15;;
18090;SDS011;9172;49.948;9.208;2022-09-04T15:28:54;3.42;;;2.25;;
18090;SDS011;9172;49.948;9.208;2022-09-04T15:31:27;2.95;;;2.10;;
18090;SDS011;9172;49.948;9.208;2022-09-04T15:33:59;5.28;;;2.12;;
18090;SDS011;9172;49.948;9.208;2022-09-04T15:36:29;3.98;;;2.12;;
18090;SDS011;9172;49.948;9.208;2022-09-04T15:39:02;5.47;;;2.40;;
18090;SDS011;9172;49.948;9.208;2022-09-04T15:41:36;2.85;;;2.10;;
18090;SDS011;9172;49.948;9.208;2022-09-04T15:44:09;2.87;;;2.00;;
18090;SDS011;9172;49.948;9.208;2022-09-04T15:46:43;4.58;;;2.62;;
18090;SDS011;9172;49.948;9.208;2022-09-04T15:49:15;3.52;;;2.15;;
18090;SDS011;9172;49.948;9.208;2022-09-04T15:51:53;3.75;;;2.17;;
18090;SDS011;9172;49.948;9.208;2022-09-04T15:54:26;4.47;;;2.33;;
18090;SDS011;9172;49.948;9.208;2022-09-04T15:57:00;4.47;;;2.58;;
18090;SDS011;9172;49.948;9.208;2022-09-04T15:59:39;4.03;;;2.33;;
18090;SDS011;9172;49.948;9.208;2022-09-04T16:02:19;2.90;;;1.92;;
18090;SDS011;9172;49.948;9.208;2022-09-04T16:04:52;4.05;;;2.22;;
18090;SDS011;9172;49.948;9.208;2022-09-04T16:07:32;3.33;;;1.93;;
18090;SDS011;9172;49.948;9.208;2022-09-04T16:10:09;2.77;;;2.00;;
18090;SDS011;9172;49.948;9.208;2022-09-04T16:12:47;5.55;;;2.27;;
18090;SDS011;9172;49.948;9.208;2022-09-04T16:15:19;2.80;;;2.00;;
18090;SDS011;9172;49.948;9.208;2022-09-04T16:17:52;4.40;;;2.25;;
18090;SDS011;9172;49.948;9.208;2022-09-04T16:20:25;2.90;;;1.70;;
18090;SDS011;9172;49.948;9.208;2022-09-04T16:22:59;15.15;;;2.27;;
18090;SDS011;9172;49.948;9.208;2022-09-04T16:25:33;2.42;;;2.00;;
18090;SDS011;9172;49.948;9.208;2022-09-04T16:28:05;4.37;;;2.58;;
18090;SDS011;9172;49.948;9.208;2022-09-04T16:30:37;2.98;;;2.33;;
18090;SDS011;9172;49.948;9.208;2022-09-04T16:33:17;2.98;;;1.98;;
18090;SDS011;9172;49.948;9.208;2022-09-04T16:35:48;2.95;;;2.27;;
18090;SDS011;9172;49.948;9.208;2022-09-04T16:38:19;3.35;;;1.90;;
18090;SDS011;9172;49.948;9.208;2022-09-04T16:40:52;3.25;;;1.90;;
18090;SDS011;9172;49.948;9.208;2022-09-04T16:43:25;3.12;;;1.98;;
18090;SDS011;9172;49.948;9.208;2022-09-04T16:46:03;2.47;;;2.10;;
18090;SDS011;9172;49.948;9.208;2022-09-04T16:48:36;2.83;;;2.02;;
18090;SDS011;9172;49.948;9.208;2022-09-04T16:51:10;4.00;;;2.27;;
18090;SDS011;9172;49.948;9.208;2022-09-04T16:53:42;3.83;;;2.25;;
18090;SDS011;9172;49.948;9.208;2022-09-04T16:56:16;3.02;;;1.72;;
18090;SDS011;9172;49.948;9.208;2022-09-04T16:58:48;3.30;;;2.05;;
18090;SDS011;9172;49.948;9.208;2022-09-04T17:01:23;2.42;;;1.80;;
18090;SDS011;9172;49.948;9.208;2022-09-04T17:04:06;3.02;;;1.67;;
18090;SDS011;9172;49.948;9.208;2022-09-04T17:06:52;2.60;;;1.82;;
18090;SDS011;9172;49.948;9.208;2022-09-04T17:09:27;2.20;;;1.60;;
18090;SDS011;9172;49.948;9.208;2022-09-04T17:12:02;4.08;;;2.10;;
18090;SDS011;9172;49.948;9.208;2022-09-04T17:14:41;2.92;;;1.65;;
18090;SDS011;9172;49.948;9.208;2022-09-04T17:17:12;4.20;;;2.42;;